sensor_id;sensor_type;location;lat;lon;timestamp;P1;durP1;ratioP1;P2;durP2;ratioP2
68089;SDS011;54880;50.986;6.990;2023-11-22T00:01:44;15.95;;;7.50;;
68089;SDS011;54880;50.986;6.990;2023-11-22T00:04:12;17.77;;;8.02;;
68089;SDS011;54880;50.986;6.990;2023-11-22T00:06:38;15.83;;;8.20;;
68089;SDS011;54880;50.986;6.990;2023-11-22T00:09:03;15.20;;;7.90;;
68089;SDS011;54880;50.986;6.990;2023-11-22T00:11:29;17.15;;;7.78;;
68089;SDS011;54880;50.986;6.990;2023-11-22T00:13:55;17.30;;;8.23;;
68089;SDS011;54880;50.986;6.990;2023-11-22T00:16:20;13.45;;;6.70;;
68089;SDS011;54880;50.986;6.990;2023-11-22T00:18:46;15.17;;;7.77;;
68089;SDS011;54880;50.986;6.990;2023-11-22T00:21:11;16.30;;;7.40;;
68089;SDS011;54880;50.986;6.990;2023-11-22T00:23:37;14.68;;;7.50;;
68089;SDS011;54880;50.986;6.990;2023-11-22T00:26:02;13.70;;;7.30;;
68089;SDS011;54880;50.986;6.990;2023-11-22T00:28:28;17.40;;;8.38;;
68089;SDS011;54880;50.986;6.990;2023-11-22T00:30:54;17.90;;;7.70;;
68089;SDS011;54880;50.986;6.990;2023-11-22T00:33:19;17.47;;;7.73;;
68089;SDS011;54880;50.986;6.990;2023-11-22T00:35:45;14.80;;;7.50;;
68089;SDS011;54880;50.986;6.990;2023-11-22T00:38:10;16.55;;;7.57;;
68089;SDS011;54880;50.986;6.990;2023-11-22T00:40:35;15.75;;;7.97;;
68089;SDS011;54880;50.986;6.990;2023-11-22T00:43:01;15.10;;;7.17;;
68089;SDS011;54880;50.986;6.990;2023-11-22T00:45:28;13.80;;;7.40;;
68089;SDS011;54880;50.986;6.990;2023-11-22T00:47:54;14.98;;;7.63;;
68089;SDS011;54880;50.986;6.990;2023-11-22T00:50:20;17.10;;;7.80;;
68089;SDS011;54880;50.986;6.990;2023-11-22T00:52:46;16.17;;;7.77;;
68089;SDS011;54880;50.986;6.990;2023-11-22T00:55:12;16.42;;;8.15;;
68089;SDS011;54880;50.986;6.990;2023-11-22T00:57:37;15.53;;;7.20;;
68089;SDS011;54880;50.986;6.990;2023-11-22T01:00:02;14.60;;;7.80;;
68089;SDS011;54880;50.986;6.990;2023-11-22T01:02:29;15.38;;;7.45;;
68089;SDS011;54880;50.986;6.990;2023-11-22T01:04:55;16.60;;;7.90;;
68089;SDS011;54880;50.986;6.990;2023-11-22T01:07:20;18.87;;;7.87;;
68089;SDS011;54880;50.986;6.990;2023-11-22T01:09:46;14.52;;;7.40;;
68089;SDS011;54880;50.986;6.990;2023-11-22T01:12:11;14.70;;;6.90;;
68089;SDS011;54880;50.986;6.990;2023-11-22T01:14:38;16.73;;;7.95;;
68089;SDS011;54880;50.986;6.990;2023-11-22T01:17:03;13.63;;;7.40;;
68089;SDS011;54880;50.986;6.990;2023-11-22T01:19:28;17.03;;;8.07;;
68089;SDS011;54880;50.986;6.990;2023-11-22T01:21:54;16.27;;;7.30;;
68089;SDS011;54880;50.986;6.990;2023-11-22T01:24:19;15.23;;;7.70;;
68089;SDS011;54880;50.986;6.990;2023-11-22T01:26:45;14.25;;;7.38;;
68089;SDS011;54880;50.986;6.990;2023-11-22T01:29:10;15.30;;;8.13;;
68089;SDS011;54880;50.986;6.990;2023-11-22T01:31:37;16.02;;;7.60;;
68089;SDS011;54880;50.986;6.990;2023-11-22T01:34:02;16.83;;;7.20;;
68089;SDS011;54880;50.986;6.990;2023-11-22T01:36:29;14.02;;;7.25;;
68089;SDS011;54880;50.986;6.990;2023-11-22T01:38:54;23.50;;;7.60;;
68089;SDS011;54880;50.986;6.990;2023-11-22T01:41:21;16.33;;;7.53;;
68089;SDS011;54880;50.986;6.990;2023-11-22T01:43:46;16.80;;;7.78;;
68089;SDS011;54880;50.986;6.990;2023-11-22T01:46:18;15.90;;;8.10;;
68089;SDS011;54880;50.986;6.990;2023-11-22T01:48:46;16.55;;;7.20;;
68089;SDS011;54880;50.986;6.990;2023-11-22T01:51:11;14.90;;;7.47;;
68089;SDS011;54880;50.986;6.990;2023-11-22T01:53:37;15.47;;;7.83;;
68089;SDS011;54880;50.986;6.990;2023-11-22T01:56:02;14.90;;;7.40;;
68089;SDS011;54880;50.986;6.990;2023-11-22T01:58:28;14.05;;;7.38;;
68089;SDS011;54880;50.986;6.990;2023-11-22T02:00:53;14.77;;;7.13;;
68089;SDS011;54880;50.986;6.990;2023-11-22T02:03:18;14.80;;;7.33;;
68089;SDS011;54880;50.986;6.990;2023-11-22T02:05:44;16.90;;;8.03;;
68089;SDS011;54880;50.986;6.990;2023-11-22T02:08:09;16.63;;;7.50;;
68089;SDS011;54880;50.986;6.990;2023-11-22T02:10:36;14.57;;;7.32;;
68089;SDS011;54880;50.986;6.990;2023-11-22T02:13:02;15.52;;;7.75;;
68089;SDS011;54880;50.986;6.990;2023-11-22T02:15:30;13.60;;;6.83;;
68089;SDS011;54880;50.986;6.990;2023-11-22T02:17:55;13.32;;;7.30;;
68089;SDS011;54880;50.986;6.990;2023-11-22T02:20:20;14.63;;;7.53;;
68089;SDS011;54880;50.986;6.990;2023-11-22T02:22:46;13.73;;;7.10;;
68089;SDS011;54880;50.986;6.990;2023-11-22T02:25:12;14.68;;;7.13;;
68089;SDS011;54880;50.986;6.990;2023-11-22T02:27:37;14.87;;;7.30;;
68089;SDS011;54880;50.986;6.990;2023-11-22T02:30:03;13.57;;;7.60;;
68089;SDS011;54880;50.986;6.990;2023-11-22T02:32:31;13.48;;;7.20;;
68089;SDS011;54880;50.986;6.990;2023-11-22T02:34:56;13.60;;;6.77;;
68089;SDS011;54880;50.986;6.990;2023-11-22T02:37:21;16.00;;;7.83;;
68089;SDS011;54880;50.986;6.990;2023-11-22T02:42:22;13.63;;;7.30;;
68089;SDS011;54880;50.986;6.990;2023-11-22T02:44:48;12.97;;;7.30;;
68089;SDS011;54880;50.986;6.990;2023-11-22T02:47:14;15.30;;;7.28;;
68089;SDS011;54880;50.986;6.990;2023-11-22T02:49:40;13.23;;;7.00;;
68089;SDS011;54880;50.986;6.990;2023-11-22T02:52:05;14.97;;;7.07;;
68089;SDS011;54880;50.986;6.990;2023-11-22T02:54:31;15.90;;;7.00;;
68089;SDS011;54880;50.986;6.990;2023-11-22T02:56:57;13.55;;;7.10;;
68089;SDS011;54880;50.986;6.990;2023-11-22T02:59:22;15.17;;;8.27;;
68089;SDS011;54880;50.986;6.990;2023-11-22T03:01:47;14.33;;;7.37;;
68089;SDS011;54880;50.986;6.990;2023-11-22T03:04:13;13.80;;;7.27;;
68089;SDS011;54880;50.986;6.990;2023-11-22T03:06:39;15.45;;;7.70;;
68089;SDS011;54880;50.986;6.990;2023-11-22T03:09:04;17.03;;;7.40;;
68089;SDS011;54880;50.986;6.990;2023-11-22T03:11:29;14.07;;;6.93;;
68089;SDS011;54880;50.986;6.990;2023-11-22T03:13:54;14.93;;;7.40;;
68089;SDS011;54880;50.986;6.990;2023-11-22T03:16:20;11.93;;;6.17;;
68089;SDS011;54880;50.986;6.990;2023-11-22T03:18:45;14.80;;;7.70;;
68089;SDS011;54880;50.986;6.990;2023-11-22T03:21:11;14.23;;;7.10;;
68089;SDS011;54880;50.986;6.990;2023-11-22T03:23:36;14.48;;;7.18;;
68089;SDS011;54880;50.986;6.990;2023-11-22T03:26:02;13.85;;;7.07;;
68089;SDS011;54880;50.986;6.990;2023-11-22T03:28:28;14.20;;;6.75;;
68089;SDS011;54880;50.986;6.990;2023-11-22T03:30:55;13.67;;;6.80;;
68089;SDS011;54880;50.986;6.990;2023-11-22T03:33:20;14.10;;;6.43;;
68089;SDS011;54880;50.986;6.990;2023-11-22T03:35:46;14.37;;;6.80;;
68089;SDS011;54880;50.986;6.990;2023-11-22T03:38:11;13.87;;;7.13;;
68089;SDS011;54880;50.986;6.990;2023-11-22T03:40:36;13.43;;;7.27;;
68089;SDS011;54880;50.986;6.990;2023-11-22T03:43:03;15.18;;;7.65;;
68089;SDS011;54880;50.986;6.990;2023-11-22T03:45:28;14.23;;;7.27;;
68089;SDS011;54880;50.986;6.990;2023-11-22T03:47:54;14.60;;;7.20;;
68089;SDS011;54880;50.986;6.990;2023-11-22T03:50:19;15.60;;;7.70;;
68089;SDS011;54880;50.986;6.990;2023-11-22T03:52:45;16.00;;;7.90;;
68089;SDS011;54880;50.986;6.990;2023-11-22T03:55:12;15.77;;;7.27;;
68089;SDS011;54880;50.986;6.990;2023-11-22T03:57:37;17.07;;;7.33;;
68089;SDS011;54880;50.986;6.990;2023-11-22T04:00:02;14.43;;;7.17;;
68089;SDS011;54880;50.986;6.990;2023-11-22T04:02:38;13.55;;;7.30;;
68089;SDS011;54880;50.986;6.990;2023-11-22T04:05:03;14.52;;;7.13;;
68089;SDS011;54880;50.986;6.990;2023-11-22T04:07:29;15.50;;;7.70;;
68089;SDS011;54880;50.986;6.990;2023-11-22T04:09:54;15.10;;;7.77;;
68089;SDS011;54880;50.986;6.990;2023-11-22T04:12:20;15.35;;;7.75;;
68089;SDS011;54880;50.986;6.990;2023-11-22T04:14:46;14.63;;;7.83;;
68089;SDS011;54880;50.986;6.990;2023-11-22T04:17:11;13.77;;;6.63;;
68089;SDS011;54880;50.986;6.990;2023-11-22T04:19:37;13.57;;;7.80;;
68089;SDS011;54880;50.986;6.990;2023-11-22T04:22:02;13.60;;;7.23;;
68089;SDS011;54880;50.986;6.990;2023-11-22T04:24:27;12.90;;;6.80;;
68089;SDS011;54880;50.986;6.990;2023-11-22T04:26:52;14.50;;;7.30;;
68089;SDS011;54880;50.986;6.990;2023-11-22T04:29:18;15.63;;;7.87;;
68089;SDS011;54880;50.986;6.990;2023-11-22T04:31:43;14.80;;;7.13;;
68089;SDS011;54880;50.986;6.990;2023-11-22T04:34:09;14.47;;;7.47;;
68089;SDS011;54880;50.986;6.990;2023-11-22T04:36:34;15.17;;;7.73;;
68089;SDS011;54880;50.986;6.990;2023-11-22T04:38:59;15.43;;;7.53;;
68089;SDS011;54880;50.986;6.990;2023-11-22T04:41:25;16.52;;;7.90;;
68089;SDS011;54880;50.986;6.990;2023-11-22T04:43:51;14.50;;;7.53;;
68089;SDS011;54880;50.986;6.990;2023-11-22T04:46:16;14.80;;;7.73;;
68089;SDS011;54880;50.986;6.990;2023-11-22T04:48:42;15.27;;;7.70;;
68089;SDS011;54880;50.986;6.990;2023-11-22T04:51:10;16.98;;;7.53;;
68089;SDS011;54880;50.986;6.990;2023-11-22T04:53:35;15.70;;;7.70;;
68089;SDS011;54880;50.986;6.990;2023-11-22T04:56:01;13.73;;;6.97;;
68089;SDS011;54880;50.986;6.990;2023-11-22T04:58:30;16.30;;;7.70;;
68089;SDS011;54880;50.986;6.990;2023-11-22T05:00:56;15.85;;;7.65;;
68089;SDS011;54880;50.986;6.990;2023-11-22T05:03:22;15.23;;;7.70;;
68089;SDS011;54880;50.986;6.990;2023-11-22T05:05:47;16.60;;;7.80;;
68089;SDS011;54880;50.986;6.990;2023-11-22T05:08:12;14.27;;;7.97;;
68089;SDS011;54880;50.986;6.990;2023-11-22T05:10:38;17.67;;;8.00;;
68089;SDS011;54880;50.986;6.990;2023-11-22T05:13:04;14.80;;;7.50;;
68089;SDS011;54880;50.986;6.990;2023-11-22T05:15:30;15.10;;;8.02;;
68089;SDS011;54880;50.986;6.990;2023-11-22T05:17:55;17.60;;;7.97;;
68089;SDS011;54880;50.986;6.990;2023-11-22T05:20:21;14.83;;;7.77;;
68089;SDS011;54880;50.986;6.990;2023-11-22T05:22:46;16.63;;;8.25;;
68089;SDS011;54880;50.986;6.990;2023-11-22T05:25:12;17.25;;;7.40;;
68089;SDS011;54880;50.986;6.990;2023-11-22T05:27:37;15.03;;;7.53;;
68089;SDS011;54880;50.986;6.990;2023-11-22T05:30:02;16.07;;;7.33;;
68089;SDS011;54880;50.986;6.990;2023-11-22T05:32:29;15.98;;;7.85;;
68089;SDS011;54880;50.986;6.990;2023-11-22T05:34:56;16.00;;;7.60;;
68089;SDS011;54880;50.986;6.990;2023-11-22T05:37:21;13.70;;;7.47;;
68089;SDS011;54880;50.986;6.990;2023-11-22T05:39:47;14.33;;;7.30;;
68089;SDS011;54880;50.986;6.990;2023-11-22T05:42:12;14.50;;;7.53;;
68089;SDS011;54880;50.986;6.990;2023-11-22T05:44:37;19.43;;;7.03;;
68089;SDS011;54880;50.986;6.990;2023-11-22T05:47:02;15.33;;;6.87;;
68089;SDS011;54880;50.986;6.990;2023-11-22T05:49:28;15.30;;;6.97;;
68089;SDS011;54880;50.986;6.990;2023-11-22T05:51:53;13.80;;;6.13;;
68089;SDS011;54880;50.986;6.990;2023-11-22T05:54:18;14.57;;;6.43;;
68089;SDS011;54880;50.986;6.990;2023-11-22T05:56:44;13.53;;;6.67;;
68089;SDS011;54880;50.986;6.990;2023-11-22T05:59:09;13.13;;;6.13;;
68089;SDS011;54880;50.986;6.990;2023-11-22T06:01:34;12.85;;;6.38;;
68089;SDS011;54880;50.986;6.990;2023-11-22T06:04:00;12.90;;;6.27;;
68089;SDS011;54880;50.986;6.990;2023-11-22T06:06:25;13.25;;;6.05;;
68089;SDS011;54880;50.986;6.990;2023-11-22T06:08:50;15.45;;;5.88;;
68089;SDS011;54880;50.986;6.990;2023-11-22T06:11:15;11.73;;;5.78;;
68089;SDS011;54880;50.986;6.990;2023-11-22T06:13:41;12.52;;;6.00;;
68089;SDS011;54880;50.986;6.990;2023-11-22T06:16:07;16.00;;;6.37;;
68089;SDS011;54880;50.986;6.990;2023-11-22T06:18:34;12.88;;;5.70;;
68089;SDS011;54880;50.986;6.990;2023-11-22T06:21:05;12.25;;;6.03;;
68089;SDS011;54880;50.986;6.990;2023-11-22T06:23:30;12.63;;;5.63;;
68089;SDS011;54880;50.986;6.990;2023-11-22T06:25:55;13.70;;;6.27;;
68089;SDS011;54880;50.986;6.990;2023-11-22T06:28:21;11.57;;;5.53;;
68089;SDS011;54880;50.986;6.990;2023-11-22T06:30:47;13.10;;;5.88;;
68089;SDS011;54880;50.986;6.990;2023-11-22T06:33:12;15.00;;;5.83;;
68089;SDS011;54880;50.986;6.990;2023-11-22T06:35:38;11.33;;;5.70;;
68089;SDS011;54880;50.986;6.990;2023-11-22T06:38:03;15.33;;;6.17;;
68089;SDS011;54880;50.986;6.990;2023-11-22T06:40:28;13.93;;;5.67;;
68089;SDS011;54880;50.986;6.990;2023-11-22T06:42:55;13.70;;;6.00;;
68089;SDS011;54880;50.986;6.990;2023-11-22T06:45:20;11.00;;;5.67;;
68089;SDS011;54880;50.986;6.990;2023-11-22T06:47:46;12.55;;;5.63;;
68089;SDS011;54880;50.986;6.990;2023-11-22T06:50:11;13.00;;;5.73;;
68089;SDS011;54880;50.986;6.990;2023-11-22T06:52:40;14.10;;;6.97;;
68089;SDS011;54880;50.986;6.990;2023-11-22T06:55:07;12.45;;;5.95;;
68089;SDS011;54880;50.986;6.990;2023-11-22T06:57:33;12.32;;;5.82;;
68089;SDS011;54880;50.986;6.990;2023-11-22T06:59:59;13.00;;;5.90;;
68089;SDS011;54880;50.986;6.990;2023-11-22T07:02:26;15.13;;;6.22;;
68089;SDS011;54880;50.986;6.990;2023-11-22T07:04:51;12.67;;;6.10;;
68089;SDS011;54880;50.986;6.990;2023-11-22T07:07:16;12.43;;;5.83;;
68089;SDS011;54880;50.986;6.990;2023-11-22T07:09:42;12.80;;;6.30;;
68089;SDS011;54880;50.986;6.990;2023-11-22T07:12:07;13.47;;;6.63;;
68089;SDS011;54880;50.986;6.990;2023-11-22T07:14:33;13.30;;;5.65;;
68089;SDS011;54880;50.986;6.990;2023-11-22T07:16:58;13.33;;;6.10;;
68089;SDS011;54880;50.986;6.990;2023-11-22T07:19:24;12.30;;;5.80;;
68089;SDS011;54880;50.986;6.990;2023-11-22T07:21:50;15.57;;;6.87;;
68089;SDS011;54880;50.986;6.990;2023-11-22T07:24:15;14.30;;;6.95;;
68089;SDS011;54880;50.986;6.990;2023-11-22T07:26:41;18.70;;;9.03;;
68089;SDS011;54880;50.986;6.990;2023-11-22T07:29:07;19.42;;;10.20;;
68089;SDS011;54880;50.986;6.990;2023-11-22T07:31:33;21.00;;;10.33;;
68089;SDS011;54880;50.986;6.990;2023-11-22T07:33:58;19.33;;;9.40;;
68089;SDS011;54880;50.986;6.990;2023-11-22T07:36:23;18.73;;;9.67;;
68089;SDS011;54880;50.986;6.990;2023-11-22T07:38:49;21.77;;;10.00;;
68089;SDS011;54880;50.986;6.990;2023-11-22T07:41:15;17.07;;;8.70;;
68089;SDS011;54880;50.986;6.990;2023-11-22T07:43:41;21.50;;;10.00;;
68089;SDS011;54880;50.986;6.990;2023-11-22T07:46:06;22.50;;;11.15;;
68089;SDS011;54880;50.986;6.990;2023-11-22T07:48:41;21.67;;;11.80;;
68089;SDS011;54880;50.986;6.990;2023-11-22T07:51:07;26.47;;;12.20;;
68089;SDS011;54880;50.986;6.990;2023-11-22T07:53:33;22.08;;;12.00;;
68089;SDS011;54880;50.986;6.990;2023-11-22T07:55:59;24.33;;;13.30;;
68089;SDS011;54880;50.986;6.990;2023-11-22T07:58:29;21.25;;;11.40;;
68089;SDS011;54880;50.986;6.990;2023-11-22T08:00:55;21.08;;;10.50;;
68089;SDS011;54880;50.986;6.990;2023-11-22T08:03:20;19.90;;;10.33;;
68089;SDS011;54880;50.986;6.990;2023-11-22T08:05:50;15.77;;;8.98;;
68089;SDS011;54880;50.986;6.990;2023-11-22T08:08:17;15.45;;;8.48;;
68089;SDS011;54880;50.986;6.990;2023-11-22T08:10:42;15.27;;;7.20;;
68089;SDS011;54880;50.986;6.990;2023-11-22T08:13:08;15.80;;;7.30;;
68089;SDS011;54880;50.986;6.990;2023-11-22T08:15:34;17.27;;;7.97;;
68089;SDS011;54880;50.986;6.990;2023-11-22T08:18:00;18.23;;;7.40;;
68089;SDS011;54880;50.986;6.990;2023-11-22T08:20:25;14.10;;;6.68;;
68089;SDS011;54880;50.986;6.990;2023-11-22T08:22:51;14.75;;;6.60;;
68089;SDS011;54880;50.986;6.990;2023-11-22T08:25:16;13.87;;;6.50;;
68089;SDS011;54880;50.986;6.990;2023-11-22T08:27:42;13.27;;;5.57;;
68089;SDS011;54880;50.986;6.990;2023-11-22T08:30:07;15.07;;;6.10;;
68089;SDS011;54880;50.986;6.990;2023-11-22T08:32:38;11.95;;;5.47;;
68089;SDS011;54880;50.986;6.990;2023-11-22T08:35:03;12.32;;;5.43;;
68089;SDS011;54880;50.986;6.990;2023-11-22T08:37:32;10.13;;;4.80;;
68089;SDS011;54880;50.986;6.990;2023-11-22T08:40:00;13.75;;;5.32;;
68089;SDS011;54880;50.986;6.990;2023-11-22T08:42:25;10.77;;;4.88;;
68089;SDS011;54880;50.986;6.990;2023-11-22T08:44:51;10.93;;;4.88;;
68089;SDS011;54880;50.986;6.990;2023-11-22T08:47:16;11.50;;;5.23;;
68089;SDS011;54880;50.986;6.990;2023-11-22T08:49:43;10.63;;;5.00;;
68089;SDS011;54880;50.986;6.990;2023-11-22T08:52:08;13.53;;;4.67;;
68089;SDS011;54880;50.986;6.990;2023-11-22T08:54:33;12.13;;;5.57;;
68089;SDS011;54880;50.986;6.990;2023-11-22T08:56:58;11.67;;;4.90;;
68089;SDS011;54880;50.986;6.990;2023-11-22T08:59:25;10.15;;;4.82;;
68089;SDS011;54880;50.986;6.990;2023-11-22T09:01:50;10.57;;;4.93;;
68089;SDS011;54880;50.986;6.990;2023-11-22T09:04:15;10.47;;;4.83;;
68089;SDS011;54880;50.986;6.990;2023-11-22T09:06:41;9.73;;;4.30;;
68089;SDS011;54880;50.986;6.990;2023-11-22T09:09:07;9.83;;;4.13;;
68089;SDS011;54880;50.986;6.990;2023-11-22T09:11:32;10.38;;;3.72;;
68089;SDS011;54880;50.986;6.990;2023-11-22T09:13:59;10.57;;;4.10;;
68089;SDS011;54880;50.986;6.990;2023-11-22T09:16:26;8.68;;;4.15;;
68089;SDS011;54880;50.986;6.990;2023-11-22T09:18:52;8.00;;;3.60;;
68089;SDS011;54880;50.986;6.990;2023-11-22T09:21:19;11.30;;;3.30;;
68089;SDS011;54880;50.986;6.990;2023-11-22T09:23:46;7.60;;;3.27;;
68089;SDS011;54880;50.986;6.990;2023-11-22T09:26:13;8.43;;;3.30;;
68089;SDS011;54880;50.986;6.990;2023-11-22T09:28:39;8.88;;;3.92;;
68089;SDS011;54880;50.986;6.990;2023-11-22T09:31:05;9.13;;;3.38;;
68089;SDS011;54880;50.986;6.990;2023-11-22T09:33:31;8.43;;;3.00;;
68089;SDS011;54880;50.986;6.990;2023-11-22T09:35:56;7.43;;;3.03;;
68089;SDS011;54880;50.986;6.990;2023-11-22T09:38:23;8.57;;;3.42;;
68089;SDS011;54880;50.986;6.990;2023-11-22T09:40:48;7.13;;;2.43;;
68089;SDS011;54880;50.986;6.990;2023-11-22T09:43:14;8.13;;;3.20;;
68089;SDS011;54880;50.986;6.990;2023-11-22T09:45:49;9.23;;;3.60;;
68089;SDS011;54880;50.986;6.990;2023-11-22T09:48:18;7.35;;;3.08;;
68089;SDS011;54880;50.986;6.990;2023-11-22T09:53:11;7.90;;;2.80;;
68089;SDS011;54880;50.986;6.990;2023-11-22T09:55:37;7.38;;;2.72;;
68089;SDS011;54880;50.986;6.990;2023-11-22T09:58:03;7.20;;;2.60;;
68089;SDS011;54880;50.986;6.990;2023-11-22T10:00:29;9.23;;;2.77;;
68089;SDS011;54880;50.986;6.990;2023-11-22T10:02:57;6.53;;;2.50;;
68089;SDS011;54880;50.986;6.990;2023-11-22T10:05:23;8.00;;;3.00;;
68089;SDS011;54880;50.986;6.990;2023-11-22T10:07:48;8.18;;;2.92;;
68089;SDS011;54880;50.986;6.990;2023-11-22T10:10:14;7.60;;;2.43;;
68089;SDS011;54880;50.986;6.990;2023-11-22T10:12:42;7.85;;;2.50;;
68089;SDS011;54880;50.986;6.990;2023-11-22T10:15:11;6.90;;;2.57;;
68089;SDS011;54880;50.986;6.990;2023-11-22T10:17:37;7.35;;;2.47;;
68089;SDS011;54880;50.986;6.990;2023-11-22T10:20:02;6.80;;;2.53;;
68089;SDS011;54880;50.986;6.990;2023-11-22T10:22:27;7.57;;;2.67;;
68089;SDS011;54880;50.986;6.990;2023-11-22T10:24:53;6.67;;;2.40;;
68089;SDS011;54880;50.986;6.990;2023-11-22T10:27:20;7.22;;;2.85;;
68089;SDS011;54880;50.986;6.990;2023-11-22T10:29:45;8.23;;;2.73;;
68089;SDS011;54880;50.986;6.990;2023-11-22T10:32:12;7.93;;;2.83;;
68089;SDS011;54880;50.986;6.990;2023-11-22T10:34:37;6.77;;;2.60;;
68089;SDS011;54880;50.986;6.990;2023-11-22T10:37:02;8.27;;;2.80;;
68089;SDS011;54880;50.986;6.990;2023-11-22T10:39:29;7.45;;;2.40;;
68089;SDS011;54880;50.986;6.990;2023-11-22T10:41:54;6.23;;;2.30;;
68089;SDS011;54880;50.986;6.990;2023-11-22T10:44:20;10.53;;;2.80;;
68089;SDS011;54880;50.986;6.990;2023-11-22T10:46:47;8.45;;;2.63;;
68089;SDS011;54880;50.986;6.990;2023-11-22T10:49:12;6.60;;;2.50;;
68089;SDS011;54880;50.986;6.990;2023-11-22T10:51:38;6.70;;;2.30;;
68089;SDS011;54880;50.986;6.990;2023-11-22T10:54:04;5.65;;;1.98;;
68089;SDS011;54880;50.986;6.990;2023-11-22T10:56:36;8.02;;;2.03;;
68089;SDS011;54880;50.986;6.990;2023-11-22T10:59:02;5.53;;;1.80;;
68089;SDS011;54880;50.986;6.990;2023-11-22T11:01:30;6.85;;;2.20;;
68089;SDS011;54880;50.986;6.990;2023-11-22T11:04:42;8.37;;;2.17;;
68089;SDS011;54880;50.986;6.990;2023-11-22T11:06:42;6.63;;;1.90;;
68089;SDS011;54880;50.986;6.990;2023-11-22T11:09:09;6.00;;;2.15;;
68089;SDS011;54880;50.986;6.990;2023-11-22T11:11:36;8.85;;;2.28;;
68089;SDS011;54880;50.986;6.990;2023-11-22T11:14:02;8.73;;;2.40;;
68089;SDS011;54880;50.986;6.990;2023-11-22T11:16:27;7.18;;;2.67;;
68089;SDS011;54880;50.986;6.990;2023-11-22T11:18:53;9.03;;;2.80;;
68089;SDS011;54880;50.986;6.990;2023-11-22T11:21:18;8.52;;;3.08;;
68089;SDS011;54880;50.986;6.990;2023-11-22T11:23:44;9.40;;;2.90;;
68089;SDS011;54880;50.986;6.990;2023-11-22T11:26:16;7.73;;;3.37;;
68089;SDS011;54880;50.986;6.990;2023-11-22T11:28:46;9.38;;;2.90;;
68089;SDS011;54880;50.986;6.990;2023-11-22T11:31:15;8.90;;;3.03;;
68089;SDS011;54880;50.986;6.990;2023-11-22T11:36:12;8.38;;;3.35;;
68089;SDS011;54880;50.986;6.990;2023-11-22T11:38:45;6.88;;;2.42;;
68089;SDS011;54880;50.986;6.990;2023-11-22T11:41:14;7.32;;;2.97;;
68089;SDS011;54880;50.986;6.990;2023-11-22T11:46:08;8.48;;;2.70;;
68089;SDS011;54880;50.986;6.990;2023-11-22T11:48:34;8.77;;;3.10;;
68089;SDS011;54880;50.986;6.990;2023-11-22T11:51:00;8.03;;;3.00;;
68089;SDS011;54880;50.986;6.990;2023-11-22T11:53:26;7.93;;;2.73;;
68089;SDS011;54880;50.986;6.990;2023-11-22T11:55:51;7.97;;;2.85;;
68089;SDS011;54880;50.986;6.990;2023-11-22T11:58:18;8.80;;;3.03;;
68089;SDS011;54880;50.986;6.990;2023-11-22T12:00:43;7.20;;;3.07;;
68089;SDS011;54880;50.986;6.990;2023-11-22T12:03:09;8.95;;;3.05;;
68089;SDS011;54880;50.986;6.990;2023-11-22T12:05:35;8.70;;;2.97;;
68089;SDS011;54880;50.986;6.990;2023-11-22T12:08:00;10.38;;;3.08;;
68089;SDS011;54880;50.986;6.990;2023-11-22T12:10:26;8.40;;;3.08;;
68089;SDS011;54880;50.986;6.990;2023-11-22T12:12:52;7.50;;;2.72;;
68089;SDS011;54880;50.986;6.990;2023-11-22T12:15:17;8.80;;;3.20;;
68089;SDS011;54880;50.986;6.990;2023-11-22T12:17:43;8.27;;;3.05;;
68089;SDS011;54880;50.986;6.990;2023-11-22T12:20:11;8.23;;;2.97;;
68089;SDS011;54880;50.986;6.990;2023-11-22T12:22:38;8.68;;;3.30;;
68089;SDS011;54880;50.986;6.990;2023-11-22T12:25:04;9.30;;;3.10;;
68089;SDS011;54880;50.986;6.990;2023-11-22T12:27:30;7.88;;;3.22;;
68089;SDS011;54880;50.986;6.990;2023-11-22T12:29:56;7.60;;;2.80;;
68089;SDS011;54880;50.986;6.990;2023-11-22T12:32:23;10.20;;;3.28;;
68089;SDS011;54880;50.986;6.990;2023-11-22T12:34:49;9.20;;;3.50;;
68089;SDS011;54880;50.986;6.990;2023-11-22T12:37:19;8.82;;;3.20;;
68089;SDS011;54880;50.986;6.990;2023-11-22T12:39:46;9.35;;;3.38;;
68089;SDS011;54880;50.986;6.990;2023-11-22T12:42:13;9.00;;;2.77;;
68089;SDS011;54880;50.986;6.990;2023-11-22T12:44:48;7.83;;;3.00;;
68089;SDS011;54880;50.986;6.990;2023-11-22T12:47:14;9.95;;;3.35;;
68089;SDS011;54880;50.986;6.990;2023-11-22T12:49:44;8.32;;;3.10;;
68089;SDS011;54880;50.986;6.990;2023-11-22T12:52:12;8.40;;;3.15;;
68089;SDS011;54880;50.986;6.990;2023-11-22T12:54:39;9.32;;;3.13;;
68089;SDS011;54880;50.986;6.990;2023-11-22T12:57:09;7.03;;;2.90;;
68089;SDS011;54880;50.986;6.990;2023-11-22T12:59:35;9.73;;;3.40;;
68089;SDS011;54880;50.986;6.990;2023-11-22T13:02:00;8.37;;;2.97;;
68089;SDS011;54880;50.986;6.990;2023-11-22T13:04:25;10.00;;;3.00;;
68089;SDS011;54880;50.986;6.990;2023-11-22T13:06:51;8.38;;;3.13;;
68089;SDS011;54880;50.986;6.990;2023-11-22T13:09:17;8.27;;;2.72;;
68089;SDS011;54880;50.986;6.990;2023-11-22T13:11:42;7.18;;;2.60;;
68089;SDS011;54880;50.986;6.990;2023-11-22T13:14:11;7.15;;;2.60;;
68089;SDS011;54880;50.986;6.990;2023-11-22T13:16:39;8.87;;;2.60;;
68089;SDS011;54880;50.986;6.990;2023-11-22T13:19:04;7.60;;;2.75;;
68089;SDS011;54880;50.986;6.990;2023-11-22T13:21:30;7.17;;;2.73;;
68089;SDS011;54880;50.986;6.990;2023-11-22T13:23:56;10.20;;;3.20;;
68089;SDS011;54880;50.986;6.990;2023-11-22T13:26:22;7.43;;;2.97;;
68089;SDS011;54880;50.986;6.990;2023-11-22T13:28:47;9.38;;;2.95;;
68089;SDS011;54880;50.986;6.990;2023-11-22T13:31:12;8.60;;;2.60;;
68089;SDS011;54880;50.986;6.990;2023-11-22T13:33:39;8.68;;;2.88;;
68089;SDS011;54880;50.986;6.990;2023-11-22T13:36:08;8.60;;;2.88;;
68089;SDS011;54880;50.986;6.990;2023-11-22T13:38:34;8.47;;;3.20;;
68089;SDS011;54880;50.986;6.990;2023-11-22T13:40:59;7.43;;;2.70;;
68089;SDS011;54880;50.986;6.990;2023-11-22T13:43:24;10.03;;;2.87;;
68089;SDS011;54880;50.986;6.990;2023-11-22T13:45:50;8.25;;;3.30;;
68089;SDS011;54880;50.986;6.990;2023-11-22T13:48:16;10.03;;;3.10;;
68089;SDS011;54880;50.986;6.990;2023-11-22T13:50:41;8.60;;;3.10;;
68089;SDS011;54880;50.986;6.990;2023-11-22T13:53:07;8.70;;;3.10;;
68089;SDS011;54880;50.986;6.990;2023-11-22T13:55:35;7.78;;;3.03;;
68089;SDS011;54880;50.986;6.990;2023-11-22T13:58:02;10.90;;;3.25;;
68089;SDS011;54880;50.986;6.990;2023-11-22T14:00:29;10.90;;;3.63;;
68089;SDS011;54880;50.986;6.990;2023-11-22T14:02:58;9.27;;;2.63;;
68089;SDS011;54880;50.986;6.990;2023-11-22T14:05:29;7.32;;;2.70;;
68089;SDS011;54880;50.986;6.990;2023-11-22T14:07:55;7.40;;;2.50;;
68089;SDS011;54880;50.986;6.990;2023-11-22T14:10:20;8.40;;;3.60;;
68089;SDS011;54880;50.986;6.990;2023-11-22T14:12:47;8.15;;;2.90;;
68089;SDS011;54880;50.986;6.990;2023-11-22T14:15:13;8.40;;;2.95;;
68089;SDS011;54880;50.986;6.990;2023-11-22T14:17:38;7.50;;;2.40;;
68089;SDS011;54880;50.986;6.990;2023-11-22T14:20:05;8.77;;;3.00;;
68089;SDS011;54880;50.986;6.990;2023-11-22T14:22:32;8.00;;;3.03;;
68089;SDS011;54880;50.986;6.990;2023-11-22T14:24:58;10.90;;;3.10;;
68089;SDS011;54880;50.986;6.990;2023-11-22T14:27:23;8.30;;;2.80;;
68089;SDS011;54880;50.986;6.990;2023-11-22T14:29:49;7.93;;;2.78;;
68089;SDS011;54880;50.986;6.990;2023-11-22T14:32:15;7.63;;;2.90;;
68089;SDS011;54880;50.986;6.990;2023-11-22T14:34:41;7.33;;;2.40;;
68089;SDS011;54880;50.986;6.990;2023-11-22T14:37:09;8.80;;;2.40;;
68089;SDS011;54880;50.986;6.990;2023-11-22T14:39:34;6.38;;;2.60;;
68089;SDS011;54880;50.986;6.990;2023-11-22T14:41:59;7.77;;;2.30;;